createdAt,value
2019-02-19T00:00:16.934Z,6.60
2019-02-19T00:01:16.915Z,7.00
2019-02-19T00:02:16.928Z,5.90
2019-02-19T00:03:16.892Z,6.30
2019-02-19T00:04:16.892Z,6.90
2019-02-19T00:05:16.910Z,6.60
2019-02-19T00:06:16.867Z,7.80
2019-02-19T00:07:16.874Z,7.30
2019-02-19T00:08:16.841Z,7.70
2019-02-19T00:09:16.826Z,6.50
2019-02-19T00:10:16.820Z,6.70
2019-02-19T00:11:16.805Z,6.90
2019-02-19T00:12:16.817Z,7.00
2019-02-19T00:13:16.795Z,7.10
2019-02-19T00:14:16.776Z,7.00
2019-02-19T00:15:16.761Z,6.70
2019-02-19T00:16:16.786Z,6.60
2019-02-19T00:17:16.767Z,6.50
2019-02-19T00:18:16.729Z,6.20
2019-02-19T00:19:16.731Z,5.90
2019-02-19T00:20:16.708Z,6.00
2019-02-19T00:21:16.698Z,6.50
2019-02-19T00:22:16.714Z,7.60
2019-02-19T00:23:16.674Z,6.00
2019-02-19T00:24:16.694Z,6.20
2019-02-19T00:25:16.652Z,6.40
2019-02-19T00:26:16.642Z,6.70
2019-02-19T00:27:16.653Z,6.10
2019-02-19T00:28:16.619Z,7.10
2019-02-19T00:29:16.613Z,5.80
2019-02-19T00:30:16.612Z,5.90
2019-02-19T00:31:16.589Z,5.50
2019-02-19T00:32:16.605Z,5.00
2019-02-19T00:33:16.566Z,5.00
2019-02-19T00:34:16.553Z,5.10
2019-02-19T00:35:16.543Z,5.10
2019-02-19T00:36:16.565Z,5.00
2019-02-19T00:37:16.543Z,4.50
2019-02-19T00:38:16.511Z,5.00
2019-02-19T00:39:16.501Z,5.70
2019-02-19T00:40:16.495Z,6.30
2019-02-19T00:41:16.478Z,5.30
2019-02-19T00:42:16.502Z,5.00
2019-02-19T00:43:16.456Z,5.70
2019-02-19T00:44:16.469Z,5.10
2019-02-19T00:45:17.021Z,5.00
2019-02-19T00:46:16.425Z,5.10
2019-02-19T00:47:16.437Z,5.10
2019-02-19T00:48:16.437Z,5.50
2019-02-19T00:49:16.390Z,5.90
2019-02-19T00:50:16.379Z,5.30
2019-02-19T00:51:16.370Z,5.30
2019-02-19T00:52:16.381Z,5.70
2019-02-19T00:53:16.349Z,5.80
2019-02-19T00:54:16.349Z,5.80
2019-02-19T00:55:16.328Z,5.90
2019-02-19T00:56:16.322Z,5.80
2019-02-19T00:57:16.329Z,6.40
2019-02-19T00:58:16.295Z,5.60
2019-02-19T00:59:16.286Z,5.40
2019-02-19T01:00:16.285Z,5.70
2019-02-19T01:01:16.261Z,6.00
2019-02-19T01:02:16.274Z,5.80
2019-02-19T01:03:16.237Z,6.30
2019-02-19T01:04:16.235Z,6.80
2019-02-19T01:05:16.223Z,5.60
2019-02-19T01:06:16.205Z,5.60
2019-02-19T01:07:16.216Z,5.10
2019-02-19T01:08:16.190Z,5.80
2019-02-19T01:09:16.175Z,5.30
2019-02-19T01:10:16.162Z,5.30
2019-02-19T01:11:16.153Z,5.50
2019-02-19T01:12:16.170Z,5.60
2019-02-19T01:13:16.163Z,5.30
2019-02-19T01:14:16.133Z,4.80
2019-02-19T01:15:16.126Z,4.90
2019-02-19T01:16:16.097Z,4.90
2019-02-19T01:17:16.109Z,5.50
2019-02-19T01:18:16.094Z,5.30
2019-02-19T01:19:16.065Z,4.70
2019-02-19T01:20:16.094Z,4.70
2019-02-19T01:21:16.059Z,5.30
2019-02-19T01:22:16.060Z,4.90
2019-02-19T01:23:16.022Z,4.90
2019-02-19T01:24:16.008Z,4.60
2019-02-19T01:25:15.998Z,4.90
2019-02-19T01:26:16.008Z,4.30
2019-02-19T01:27:16.000Z,5.00
2019-02-19T01:28:15.966Z,4.90
2019-02-19T01:29:15.963Z,5.10
2019-02-19T01:30:15.943Z,4.90
2019-02-19T01:31:15.933Z,4.90
2019-02-19T01:32:15.962Z,5.20
2019-02-19T01:33:15.914Z,5.60
2019-02-19T01:34:15.910Z,5.10
2019-02-19T01:35:15.894Z,4.70
2019-02-19T01:36:15.882Z,4.90
2019-02-19T01:37:15.876Z,5.40
2019-02-19T01:38:15.883Z,4.40
2019-02-19T01:39:15.859Z,4.30
2019-02-19T01:40:15.835Z,4.60
2019-02-19T01:41:15.830Z,5.00
2019-02-19T01:42:15.815Z,5.10
2019-02-19T01:43:15.828Z,4.60
2019-02-19T01:44:15.792Z,5.70
2019-02-19T01:45:15.781Z,4.40
2019-02-19T01:46:15.795Z,4.50
2019-02-19T01:47:15.758Z,5.20
2019-02-19T01:48:15.770Z,4.50
2019-02-19T01:49:15.738Z,4.90
2019-02-19T01:50:15.727Z,5.90
2019-02-19T01:51:15.716Z,4.70
2019-02-19T01:52:15.731Z,5.20
2019-02-19T01:53:15.718Z,4.50
2019-02-19T01:54:15.682Z,5.40
2019-02-19T01:55:15.672Z,5.20
2019-02-19T01:56:15.661Z,5.50
2019-02-19T01:57:15.650Z,4.60
2019-02-19T01:58:15.675Z,4.70
2019-02-19T01:59:15.628Z,5.00
2019-02-19T02:00:15.620Z,4.80
2019-02-19T02:01:15.609Z,4.90
2019-02-19T02:02:15.596Z,4.80
2019-02-19T02:03:15.608Z,4.90
2019-02-19T02:04:15.602Z,4.80
2019-02-19T02:05:15.565Z,4.80
2019-02-19T02:06:15.556Z,4.80
2019-02-19T02:07:15.541Z,4.80
2019-02-19T02:08:15.553Z,5.70
2019-02-19T02:09:15.522Z,5.60
2019-02-19T02:10:15.526Z,5.20
2019-02-19T02:11:15.497Z,4.80
2019-02-19T02:12:15.489Z,5.60
2019-02-19T02:13:15.658Z,5.20
2019-02-19T02:14:15.474Z,4.50
2019-02-19T02:15:15.454Z,5.10
2019-02-19T02:16:15.463Z,5.00
2019-02-19T02:17:15.462Z,5.10
2019-02-19T02:18:15.421Z,4.60
2019-02-19T02:19:15.436Z,4.90
2019-02-19T02:20:15.398Z,5.10
2019-02-19T02:21:15.389Z,5.10
2019-02-19T02:22:15.377Z,5.50
2019-02-19T02:23:15.377Z,4.20
2019-02-19T02:24:15.378Z,5.50
2019-02-19T02:25:15.345Z,4.90
2019-02-19T02:26:15.339Z,5.40
2019-02-19T02:27:15.323Z,5.10
2019-02-19T02:28:15.316Z,5.50
2019-02-19T02:29:15.327Z,5.30
2019-02-19T02:30:15.315Z,5.20
2019-02-19T02:31:15.282Z,5.30
2019-02-19T02:32:15.269Z,5.00
2019-02-19T02:33:15.259Z,5.40
2019-02-19T02:34:15.270Z,5.40
2019-02-19T02:35:15.239Z,5.00
2019-02-19T02:36:15.258Z,5.10
2019-02-19T02:37:15.215Z,4.90
2019-02-19T02:38:15.204Z,5.20
2019-02-19T02:39:15.215Z,4.50
2019-02-19T02:40:15.200Z,4.40
2019-02-19T02:41:15.171Z,4.70
2019-02-19T02:42:15.165Z,4.70
2019-02-19T02:43:15.152Z,5.70
2019-02-19T02:44:15.159Z,5.30
2019-02-19T02:45:15.151Z,5.00
2019-02-19T02:46:15.117Z,5.10
2019-02-19T02:47:15.123Z,4.90
2019-02-19T02:48:15.100Z,4.90
2019-02-19T02:49:15.106Z,5.40
2019-02-19T02:50:15.073Z,4.80
2019-02-19T02:51:15.070Z,5.00
2019-02-19T02:52:15.074Z,5.00
2019-02-19T02:53:15.058Z,5.60
2019-02-19T02:54:15.066Z,6.00
2019-02-19T02:55:15.022Z,5.30
2019-02-19T02:56:15.008Z,6.30
2019-02-19T02:57:14.995Z,5.80
2019-02-19T02:58:14.985Z,5.40
2019-02-19T02:59:14.997Z,5.50
2019-02-19T03:00:14.994Z,6.30
2019-02-19T03:01:14.956Z,6.10
2019-02-19T03:02:14.947Z,5.30
2019-02-19T03:03:14.929Z,5.80
2019-02-19T03:04:14.944Z,5.70
2019-02-19T03:05:14.919Z,5.40
2019-02-19T03:06:14.947Z,5.60
2019-02-19T03:07:14.894Z,5.60
2019-02-19T03:08:14.879Z,5.90
2019-02-19T03:09:14.891Z,5.30
2019-02-19T03:10:14.857Z,5.30
2019-02-19T03:11:14.859Z,5.90
2019-02-19T03:12:14.832Z,6.50
2019-02-19T03:13:14.821Z,5.60
2019-02-19T03:14:14.812Z,5.40
2019-02-19T03:15:14.825Z,5.90
2019-02-19T03:16:14.789Z,5.30
2019-02-19T03:17:14.789Z,5.90
2019-02-19T03:18:14.769Z,5.20
2019-02-19T03:19:14.763Z,6.00
2019-02-19T03:20:14.767Z,6.30
2019-02-19T03:21:14.737Z,5.80
2019-02-19T03:22:14.723Z,5.40
2019-02-19T03:23:14.736Z,5.60
2019-02-19T03:24:14.705Z,5.60
2019-02-19T03:25:14.715Z,5.40
2019-02-19T03:26:14.681Z,5.80
2019-02-19T03:27:14.668Z,6.00
2019-02-19T03:28:14.656Z,5.40
2019-02-19T03:29:14.668Z,5.10
2019-02-19T03:30:14.662Z,5.60
2019-02-19T03:31:14.630Z,6.10
2019-02-19T03:32:14.615Z,5.00
2019-02-19T03:33:14.605Z,6.00
2019-02-19T03:34:14.595Z,4.90
2019-02-19T03:35:14.629Z,4.80
2019-02-19T03:36:14.575Z,4.50
2019-02-19T03:37:14.562Z,5.10
2019-02-19T03:38:14.551Z,5.70
2019-02-19T03:39:14.536Z,5.60
2019-02-19T03:40:14.554Z,5.00
2019-02-19T03:41:14.548Z,6.00
2019-02-19T03:42:14.503Z,5.50
2019-02-19T03:43:14.505Z,5.30
2019-02-19T03:44:14.489Z,6.00
2019-02-19T03:45:14.492Z,4.80
2019-02-19T03:46:14.458Z,4.90
2019-02-19T03:47:14.461Z,5.00
2019-02-19T03:48:14.436Z,5.30
2019-02-19T03:49:14.428Z,5.50
2019-02-19T03:50:14.439Z,5.80
2019-02-19T03:51:14.403Z,6.20
2019-02-19T03:52:14.391Z,5.80
2019-02-19T03:53:14.416Z,5.80
2019-02-19T03:54:14.450Z,6.70
2019-02-19T03:55:14.384Z,6.70
2019-02-19T03:56:14.347Z,6.80
2019-02-19T03:57:14.341Z,6.80
2019-02-19T03:58:14.324Z,7.00
2019-02-19T03:59:14.342Z,8.60
2019-02-19T04:00:14.323Z,8.90
2019-02-19T04:01:14.298Z,8.10
2019-02-19T04:02:14.281Z,9.10
2019-02-19T04:03:14.272Z,7.70
2019-02-19T04:04:14.258Z,9.60
2019-02-19T04:05:14.278Z,9.60
2019-02-19T04:06:14.262Z,12.10
2019-02-19T04:07:14.223Z,12.40
2019-02-19T04:08:14.220Z,11.40
2019-02-19T04:09:14.202Z,12.00
2019-02-19T04:10:14.191Z,13.20
2019-02-19T04:11:14.209Z,13.70
2019-02-19T04:12:14.190Z,13.00
2019-02-19T04:13:14.156Z,14.20
2019-02-19T04:14:14.147Z,14.20
2019-02-19T04:15:14.138Z,14.40
2019-02-19T04:16:20.993Z,15.90
2019-02-19T04:17:15.111Z,15.10
2019-02-19T04:18:14.140Z,15.60
2019-02-19T04:19:14.099Z,15.80
2019-02-19T04:20:14.080Z,14.90
2019-02-19T04:21:14.095Z,15.50
2019-02-19T04:22:14.057Z,14.30
2019-02-19T04:23:14.046Z,15.80
2019-02-19T04:24:14.055Z,15.70
2019-02-19T04:25:14.024Z,15.90
2019-02-19T04:26:14.178Z,14.20
2019-02-19T04:27:14.003Z,16.60
2019-02-19T04:28:13.992Z,13.50
2019-02-19T04:29:13.982Z,16.30
2019-02-19T04:30:14.023Z,15.00
2019-02-19T04:31:13.981Z,15.80
2019-02-19T04:32:13.949Z,16.20
2019-02-19T04:33:13.939Z,16.30
2019-02-19T04:34:13.928Z,15.70
2019-02-19T04:35:13.918Z,15.00
2019-02-19T04:36:13.926Z,16.20
2019-02-19T04:37:13.902Z,15.90
2019-02-19T04:38:13.903Z,16.00
2019-02-19T04:39:13.870Z,16.50
2019-02-19T04:40:13.859Z,15.70
2019-02-19T04:41:13.873Z,16.90
2019-02-19T04:42:13.836Z,16.50
2019-02-19T04:43:13.826Z,15.20
2019-02-19T04:44:13.830Z,16.70
2019-02-19T04:45:13.802Z,16.10
2019-02-19T04:46:13.863Z,15.80
2019-02-19T04:47:13.783Z,16.90
2019-02-19T04:48:13.773Z,17.10
2019-02-19T04:49:13.757Z,17.20
2019-02-19T04:50:13.779Z,17.80
2019-02-19T04:51:13.763Z,17.10
2019-02-19T04:52:13.732Z,17.40
2019-02-19T04:53:13.749Z,18.30
2019-02-19T04:54:13.705Z,19.10
2019-02-19T04:55:13.693Z,18.60
2019-02-19T04:56:13.720Z,19.40
2019-02-19T04:57:13.672Z,18.10
2019-02-19T04:58:13.658Z,19.40
2019-02-19T04:59:13.651Z,17.90
2019-02-19T05:00:13.638Z,18.10
2019-02-19T05:01:13.652Z,18.70
2019-02-19T05:02:13.630Z,18.70
2019-02-19T05:03:13.611Z,17.20
2019-02-19T05:04:13.591Z,18.80
2019-02-19T05:05:13.582Z,18.30
2019-02-19T05:06:13.601Z,17.60
2019-02-19T05:07:13.560Z,18.50
2019-02-19T05:08:13.558Z,18.10
2019-02-19T05:09:13.542Z,18.60
2019-02-19T05:10:13.541Z,18.60
2019-02-19T05:11:13.518Z,18.00
2019-02-19T05:12:13.532Z,19.50
2019-02-19T05:13:13.500Z,18.80
2019-02-19T05:14:13.498Z,19.30
2019-02-19T05:15:13.475Z,17.80
2019-02-19T05:16:13.461Z,19.60
2019-02-19T05:17:13.472Z,19.40
2019-02-19T05:18:13.442Z,21.00
2019-02-19T05:19:13.429Z,17.80
2019-02-19T05:20:13.439Z,21.30
2019-02-19T05:21:13.417Z,21.40
2019-02-19T05:22:13.427Z,22.00
2019-02-19T05:23:13.385Z,22.20
2019-02-19T05:24:13.371Z,23.30
2019-02-19T05:25:13.364Z,22.10
2019-02-19T05:26:13.377Z,23.30
2019-02-19T05:27:13.370Z,23.70
2019-02-19T05:28:13.333Z,23.00
2019-02-19T05:29:13.317Z,24.80
2019-02-19T05:30:13.306Z,25.10
2019-02-19T05:31:13.298Z,25.80
2019-02-19T05:32:13.330Z,24.80
2019-02-19T05:33:13.277Z,22.50
2019-02-19T05:34:13.267Z,24.50
2019-02-19T05:35:13.255Z,23.40
2019-02-19T05:36:13.240Z,21.30
2019-02-19T05:37:13.254Z,25.10
2019-02-19T05:38:13.225Z,24.50
2019-02-19T05:39:13.207Z,23.80
2019-02-19T05:40:13.201Z,22.20
2019-02-19T05:41:13.186Z,24.50
2019-02-19T05:42:13.197Z,26.50
2019-02-19T05:43:13.163Z,24.60
2019-02-19T05:44:13.175Z,23.90
2019-02-19T05:45:13.141Z,23.00
2019-02-19T05:46:13.130Z,25.90
2019-02-19T05:47:13.146Z,27.00
2019-02-19T05:48:13.108Z,24.20
2019-02-19T05:49:13.099Z,24.30
2019-02-19T05:50:13.111Z,24.60
2019-02-19T05:51:13.073Z,26.90
2019-02-19T05:52:13.087Z,23.90
2019-02-19T05:53:13.051Z,25.70
2019-02-19T05:54:13.040Z,24.20
2019-02-19T05:55:13.031Z,22.40
2019-02-19T05:56:13.029Z,23.30
2019-02-19T05:57:13.039Z,22.00
2019-02-19T05:58:13.014Z,22.90
2019-02-19T05:59:12.984Z,24.50
2019-02-19T06:00:12.976Z,26.50
2019-02-19T06:01:12.964Z,24.70
2019-02-19T06:02:12.961Z,23.80
2019-02-19T06:03:12.969Z,24.70
2019-02-19T06:04:12.937Z,26.10
2019-02-19T06:05:12.926Z,22.60
2019-02-19T06:06:12.907Z,26.10
2019-02-19T06:07:12.895Z,32.10
2019-02-19T06:08:12.920Z,28.30
2019-02-19T06:09:12.875Z,29.00
2019-02-19T06:10:12.878Z,35.20
2019-02-19T06:11:12.853Z,24.70
2019-02-19T06:12:12.840Z,28.80
2019-02-19T06:13:12.855Z,30.20
2019-02-19T06:14:12.826Z,29.60
2019-02-19T06:15:12.824Z,31.10
2019-02-19T06:16:12.812Z,35.00
2019-02-19T06:17:12.790Z,35.30
2019-02-19T06:18:12.794Z,32.70
2019-02-19T06:19:12.767Z,36.30
2019-02-19T06:20:12.752Z,35.60
2019-02-19T06:21:12.738Z,37.50
2019-02-19T06:22:12.736Z,37.30
2019-02-19T06:23:12.808Z,37.30
2019-02-19T06:24:12.707Z,38.70
2019-02-19T06:25:12.776Z,36.80
2019-02-19T06:26:12.707Z,39.00
2019-02-19T06:27:12.674Z,38.80
2019-02-19T06:28:12.698Z,41.30
2019-02-19T06:29:12.651Z,37.80
2019-02-19T06:30:12.641Z,30.60
2019-02-19T06:31:12.633Z,34.00
2019-02-19T06:32:12.616Z,31.20
2019-02-19T06:33:12.628Z,36.90
2019-02-19T06:34:14.269Z,33.70
2019-02-19T06:35:12.585Z,38.10
2019-02-19T06:36:12.571Z,36.30
2019-02-19T06:37:12.580Z,27.60
2019-02-19T06:38:12.571Z,34.70
2019-02-19T06:39:12.539Z,28.90
2019-02-19T06:40:12.543Z,33.10
2019-02-19T06:41:12.521Z,39.00
2019-02-19T06:42:12.514Z,38.80
2019-02-19T06:43:12.517Z,35.10
2019-02-19T06:44:12.485Z,37.90
2019-02-19T06:45:12.472Z,35.20
2019-02-19T06:46:12.467Z,34.30
2019-02-19T06:47:12.745Z,35.40
2019-02-19T06:48:12.454Z,35.90
2019-02-19T06:49:12.455Z,34.20
2019-02-19T06:50:12.421Z,35.70
2019-02-19T06:51:12.458Z,32.80
2019-02-19T06:52:12.398Z,34.20
2019-02-19T06:53:12.391Z,31.00
2019-02-19T06:54:12.398Z,32.90
2019-02-19T06:55:12.358Z,28.70
2019-02-19T06:56:12.350Z,31.20
2019-02-19T06:57:12.338Z,27.70
2019-02-19T06:58:12.332Z,29.40
2019-02-19T06:59:12.410Z,26.90
2019-02-19T07:00:12.306Z,33.30
2019-02-19T07:01:12.298Z,27.90
2019-02-19T07:02:12.283Z,30.10
2019-02-19T07:03:12.271Z,28.20
2019-02-19T07:04:12.308Z,36.10
2019-02-19T07:05:12.264Z,35.10
2019-02-19T07:06:12.246Z,32.30
2019-02-19T07:07:12.234Z,31.50
2019-02-19T07:08:12.219Z,28.10
2019-02-19T07:09:12.232Z,35.00
2019-02-19T07:10:12.198Z,30.80
2019-02-19T07:11:12.195Z,40.40
2019-02-19T07:12:12.172Z,37.60
2019-02-19T07:13:12.163Z,35.00
2019-02-19T07:14:12.182Z,37.90
2019-02-19T07:15:12.149Z,34.20
2019-02-19T07:16:12.131Z,35.70
2019-02-19T07:17:15.751Z,37.20
2019-02-19T07:18:12.109Z,40.40
2019-02-19T07:19:12.122Z,34.90
2019-02-19T07:20:12.082Z,36.60
2019-02-19T07:21:12.074Z,40.00
2019-02-19T07:22:12.066Z,35.20
2019-02-19T07:23:12.062Z,41.80
2019-02-19T07:24:12.060Z,38.90
2019-02-19T07:25:12.028Z,33.40
2019-02-19T07:26:12.178Z,38.90
2019-02-19T07:27:12.008Z,38.80
2019-02-19T07:28:12.006Z,35.90
2019-02-19T07:29:12.023Z,34.50
2019-02-19T07:30:11.970Z,35.00
2019-02-19T07:31:11.966Z,37.30
2019-02-19T07:32:11.973Z,35.10
2019-02-19T07:33:11.950Z,35.30
2019-02-19T07:34:11.967Z,35.10
2019-02-19T07:35:11.975Z,38.60
2019-02-19T07:36:11.935Z,38.70
2019-02-19T07:37:11.896Z,38.60
2019-02-19T07:38:11.890Z,32.50
2019-02-19T07:39:11.921Z,39.70
2019-02-19T07:40:11.862Z,38.00
2019-02-19T07:41:11.860Z,38.00
2019-02-19T07:42:12.001Z,41.70
2019-02-19T07:43:11.828Z,40.20
2019-02-19T07:44:11.815Z,31.90
2019-02-19T07:45:11.844Z,31.90
2019-02-19T07:46:11.795Z,36.30
2019-02-19T07:47:11.782Z,38.90
2019-02-19T07:48:11.772Z,38.60
2019-02-19T07:49:11.759Z,36.00
2019-02-19T07:50:11.786Z,36.40
2019-02-19T07:51:11.746Z,43.70
2019-02-19T07:52:11.760Z,44.10
2019-02-19T07:53:11.732Z,41.50
2019-02-19T07:54:11.709Z,41.80
2019-02-19T07:55:11.819Z,42.50
2019-02-19T07:56:13.023Z,35.70
2019-02-19T07:57:13.432Z,39.70
2019-02-19T07:58:11.761Z,48.00
2019-02-19T07:59:11.928Z,42.00
2019-02-19T08:00:11.745Z,43.80
2019-02-19T08:01:11.686Z,39.60
2019-02-19T08:02:11.644Z,40.70
2019-02-19T08:03:11.610Z,41.00
2019-02-19T08:04:11.641Z,42.20
2019-02-19T08:05:11.715Z,43.30
2019-02-19T08:06:11.625Z,38.20
2019-02-19T08:07:11.580Z,34.80
2019-02-19T08:08:11.558Z,43.50
2019-02-19T08:09:11.676Z,40.40
2019-02-19T08:10:11.567Z,37.20
2019-02-19T08:11:11.575Z,38.50
2019-02-19T08:12:11.683Z,37.60
2019-02-19T08:13:11.502Z,39.80
2019-02-19T08:14:11.490Z,42.50
2019-02-19T08:15:11.652Z,38.50
2019-02-19T08:16:11.671Z,34.70
2019-02-19T08:17:11.488Z,38.60
2019-02-19T08:18:11.458Z,40.90
2019-02-19T08:19:11.612Z,42.10
2019-02-19T08:20:16.003Z,37.90
2019-02-19T08:21:11.561Z,36.20
2019-02-19T08:22:11.398Z,36.40
2019-02-19T08:23:11.391Z,38.70
2019-02-19T08:24:11.498Z,33.70
2019-02-19T08:25:11.391Z,40.20
2019-02-19T08:26:11.367Z,36.80
2019-02-19T08:27:11.366Z,39.30
2019-02-19T08:28:11.345Z,38.60
2019-02-19T08:29:13.817Z,38.70
2019-02-19T08:30:11.386Z,38.20
2019-02-19T08:31:11.308Z,34.30
2019-02-19T08:32:11.287Z,34.80
2019-02-19T08:33:11.272Z,33.70
2019-02-19T08:34:11.289Z,35.60
2019-02-19T08:35:11.281Z,36.20
2019-02-19T08:36:11.247Z,36.40
2019-02-19T08:37:11.249Z,37.90
2019-02-19T08:38:11.236Z,38.50
2019-02-19T08:39:11.243Z,36.30
2019-02-19T08:40:11.207Z,35.70
2019-02-19T08:41:11.214Z,35.20
2019-02-19T08:42:11.174Z,35.20
2019-02-19T08:43:11.220Z,34.90
2019-02-19T08:44:11.163Z,33.20
2019-02-19T08:45:11.147Z,33.80
2019-02-19T08:46:11.165Z,34.30
2019-02-19T08:47:12.931Z,32.50
2019-02-19T08:48:11.112Z,32.80
2019-02-19T08:49:11.101Z,32.20
2019-02-19T08:50:11.090Z,33.90
2019-02-19T08:51:11.116Z,31.80
2019-02-19T08:52:11.129Z,33.10
2019-02-19T08:53:11.069Z,32.00
2019-02-19T08:54:11.052Z,29.40
2019-02-19T08:55:11.032Z,32.00
2019-02-19T08:56:11.242Z,32.30
2019-02-19T08:57:11.019Z,31.90
2019-02-19T08:58:10.999Z,29.90
2019-02-19T08:59:10.988Z,29.60
2019-02-19T09:00:10.995Z,30.40
2019-02-19T09:01:11.002Z,32.90
2019-02-19T09:02:10.968Z,34.10
2019-02-19T09:03:10.977Z,32.10
2019-02-19T09:04:10.973Z,32.00
2019-02-19T09:05:10.967Z,31.00
2019-02-19T09:06:10.986Z,30.40
2019-02-19T09:07:10.901Z,31.20
2019-02-19T09:08:10.898Z,30.30
2019-02-19T09:09:10.888Z,31.50
2019-02-19T09:10:10.884Z,30.10
2019-02-19T09:11:10.877Z,29.20
2019-02-19T09:12:11.565Z,31.70
2019-02-19T09:13:10.842Z,31.00
2019-02-19T09:14:10.840Z,29.80
2019-02-19T09:15:11.311Z,28.70
2019-02-19T09:16:10.845Z,28.30
2019-02-19T09:17:10.783Z,29.40
2019-02-19T09:18:10.776Z,28.30
2019-02-19T09:19:10.765Z,25.00
2019-02-19T09:20:10.836Z,29.30
2019-02-19T09:21:10.773Z,27.70
2019-02-19T09:22:10.736Z,28.20
2019-02-19T09:23:10.717Z,28.00
2019-02-19T09:24:10.743Z,25.20
2019-02-19T09:25:10.752Z,27.40
2019-02-19T09:26:10.709Z,26.60
2019-02-19T09:27:10.783Z,28.00
2019-02-19T09:28:10.677Z,26.80
2019-02-19T09:29:10.671Z,26.70
2019-02-19T09:30:10.648Z,25.90
2019-02-19T09:31:10.836Z,28.10
2019-02-19T09:32:10.619Z,27.60
2019-02-19T09:33:10.608Z,27.60
2019-02-19T09:34:10.596Z,26.70
2019-02-19T09:35:10.586Z,26.40
2019-02-19T09:36:10.606Z,27.10
2019-02-19T09:37:10.590Z,26.30
2019-02-19T09:38:10.590Z,27.00
2019-02-19T09:39:10.546Z,27.40
2019-02-19T09:40:10.560Z,25.90
2019-02-19T09:41:10.532Z,26.30
2019-02-19T09:42:10.534Z,26.00
2019-02-19T09:43:10.548Z,26.00
2019-02-19T09:44:10.486Z,24.90
2019-02-19T09:45:10.490Z,24.10
2019-02-19T09:46:10.470Z,23.70
2019-02-19T09:47:10.908Z,24.20
2019-02-19T09:48:10.446Z,20.50
2019-02-19T09:49:10.430Z,22.90
2019-02-19T09:50:10.422Z,23.90
2019-02-19T09:51:10.411Z,23.70
2019-02-19T09:52:10.421Z,23.40
2019-02-19T09:53:10.416Z,23.10
2019-02-19T09:54:10.397Z,23.30
2019-02-19T09:55:10.366Z,22.70
2019-02-19T09:56:10.521Z,23.10
2019-02-19T09:57:10.491Z,22.50
2019-02-19T09:58:10.331Z,20.40
2019-02-19T09:59:10.320Z,22.50
2019-02-19T10:00:10.312Z,23.00
2019-02-19T10:01:10.296Z,22.90
2019-02-19T10:02:10.311Z,22.10
2019-02-19T10:03:10.274Z,20.20
2019-02-19T10:04:10.263Z,20.70
2019-02-19T10:05:10.254Z,22.50
2019-02-19T10:06:10.243Z,23.20
2019-02-19T10:07:10.260Z,21.90
2019-02-19T10:08:10.247Z,21.70
2019-02-19T10:09:10.207Z,22.00
2019-02-19T10:10:10.475Z,20.40
2019-02-19T10:11:10.210Z,21.40
2019-02-19T10:12:10.203Z,20.40
2019-02-19T10:13:10.174Z,19.40
2019-02-19T10:14:10.175Z,17.60
2019-02-19T10:15:10.142Z,19.30
2019-02-19T10:16:10.133Z,19.00
2019-02-19T10:17:10.164Z,19.40
2019-02-19T10:18:10.662Z,19.70
2019-02-19T10:19:10.110Z,18.50
2019-02-19T10:20:10.087Z,19.50
2019-02-19T10:21:10.079Z,19.10
2019-02-19T10:22:10.108Z,16.70
2019-02-19T10:23:10.056Z,17.10
2019-02-19T10:24:10.048Z,19.00
2019-02-19T10:25:10.038Z,18.40
2019-02-19T10:26:10.030Z,18.00
2019-02-19T10:27:10.053Z,18.40
2019-02-19T10:28:10.014Z,18.20
2019-02-19T10:29:09.987Z,17.80
2019-02-19T10:30:09.985Z,18.20
2019-02-19T10:31:09.975Z,18.20
2019-02-19T10:32:09.965Z,18.30
2019-02-19T10:33:09.967Z,18.50
2019-02-19T10:34:09.943Z,19.30
2019-02-19T10:35:09.921Z,19.90
2019-02-19T10:36:09.910Z,19.00
2019-02-19T10:37:09.901Z,19.90
2019-02-19T10:38:09.909Z,19.00
2019-02-19T10:39:09.876Z,20.50
2019-02-19T10:40:09.865Z,20.60
2019-02-19T10:41:09.853Z,21.20
2019-02-19T10:42:09.842Z,19.90
2019-02-19T10:43:09.859Z,20.40
2019-02-19T10:44:09.822Z,18.00
2019-02-19T10:45:09.885Z,18.90
2019-02-19T10:46:09.814Z,16.10
2019-02-19T10:47:09.787Z,15.50
2019-02-19T10:48:18.603Z,14.80
2019-02-19T10:49:10.763Z,15.10
2019-02-19T10:50:09.751Z,12.60
2019-02-19T10:51:09.774Z,14.20
2019-02-19T10:52:09.729Z,12.20
2019-02-19T10:53:09.742Z,13.30
2019-02-19T10:54:09.708Z,13.80
2019-02-19T10:55:09.704Z,13.30
2019-02-19T10:56:09.686Z,14.10
2019-02-19T10:57:09.759Z,13.40
2019-02-19T10:58:11.506Z,11.70
2019-02-19T10:59:09.653Z,10.40
2019-02-19T11:00:09.641Z,11.20
2019-02-19T11:01:09.632Z,10.20
2019-02-19T11:02:09.617Z,10.70
2019-02-19T11:03:09.633Z,10.80
2019-02-19T11:04:09.598Z,11.00
2019-02-19T11:05:09.600Z,10.30
2019-02-19T11:06:09.575Z,9.80
2019-02-19T11:07:09.571Z,10.20
2019-02-19T11:08:09.605Z,10.80
2019-02-19T11:09:09.548Z,9.70
2019-02-19T11:10:09.527Z,9.40
2019-02-19T11:11:09.518Z,9.30
2019-02-19T11:12:09.507Z,9.20
2019-02-19T11:13:09.519Z,9.30
2019-02-19T11:14:09.484Z,9.10
2019-02-19T11:15:09.534Z,9.40
2019-02-19T11:16:09.476Z,8.20
2019-02-19T11:17:09.450Z,7.90
2019-02-19T11:18:09.467Z,7.30
2019-02-19T11:19:09.434Z,7.00
2019-02-19T11:20:09.421Z,6.40
2019-02-19T11:21:09.406Z,5.70
2019-02-19T11:22:09.403Z,6.50
2019-02-19T11:23:09.436Z,6.00
2019-02-19T11:24:09.370Z,6.10
2019-02-19T11:25:09.361Z,6.10
2019-02-19T11:26:09.677Z,5.80
2019-02-19T11:27:09.340Z,5.10
2019-02-19T11:28:09.328Z,4.70
2019-02-19T11:29:09.341Z,5.20
2019-02-19T11:30:09.308Z,5.40
2019-02-19T11:31:10.333Z,4.80
2019-02-19T11:32:09.338Z,5.40
2019-02-19T11:33:09.273Z,4.40
2019-02-19T11:34:09.318Z,5.30
2019-02-19T11:35:09.251Z,4.60
2019-02-19T11:36:09.244Z,4.90
2019-02-19T11:37:09.251Z,4.90
2019-02-19T11:38:09.238Z,4.60
2019-02-19T11:39:09.310Z,4.80
2019-02-19T11:40:09.229Z,5.10
2019-02-19T11:41:09.221Z,4.50
2019-02-19T11:42:09.183Z,4.80
2019-02-19T11:43:09.160Z,4.10
2019-02-19T11:44:09.173Z,4.50
2019-02-19T11:45:09.193Z,4.50
2019-02-19T11:46:09.129Z,4.60
2019-02-19T11:47:09.156Z,4.40
2019-02-19T11:48:09.126Z,5.20
2019-02-19T11:49:09.167Z,4.20
2019-02-19T11:50:09.130Z,4.50
2019-02-19T11:51:09.105Z,4.00
2019-02-19T11:52:09.078Z,3.90
2019-02-19T11:53:09.083Z,4.20
2019-02-19T11:54:09.101Z,3.80
2019-02-19T11:55:09.047Z,4.20
2019-02-19T11:56:09.035Z,3.70
2019-02-19T11:57:09.049Z,4.30
2019-02-19T11:58:09.032Z,3.40
2019-02-19T11:59:09.049Z,3.90
2019-02-19T12:00:08.986Z,3.70
2019-02-19T12:01:08.985Z,3.50
2019-02-19T12:02:08.954Z,3.20
2019-02-19T12:03:08.942Z,3.30
2019-02-19T12:04:08.952Z,3.50
2019-02-19T12:05:08.923Z,3.80
2019-02-19T12:06:08.906Z,3.50
2019-02-19T12:07:08.915Z,4.00
2019-02-19T12:08:08.889Z,3.50
2019-02-19T12:09:08.898Z,3.80
2019-02-19T12:10:08.862Z,4.10
2019-02-19T12:11:08.858Z,4.20
2019-02-19T12:12:08.855Z,4.00
2019-02-19T12:13:08.843Z,3.20
2019-02-19T12:14:08.995Z,3.50
2019-02-19T12:15:08.819Z,3.70
2019-02-19T12:16:08.807Z,3.40
2019-02-19T12:17:08.786Z,3.50
2019-02-19T12:18:08.775Z,3.40
2019-02-19T12:19:08.802Z,3.60
2019-02-19T12:20:08.755Z,3.80
2019-02-19T12:21:10.546Z,4.40
2019-02-19T12:22:08.731Z,3.70
2019-02-19T12:23:08.718Z,4.40
2019-02-19T12:24:08.708Z,4.30
2019-02-19T12:25:08.722Z,3.60
2019-02-19T12:26:08.685Z,4.40
2019-02-19T12:27:08.995Z,4.00
2019-02-19T12:28:08.666Z,4.40
2019-02-19T12:29:08.653Z,3.10
2019-02-19T12:30:08.668Z,4.10
2019-02-19T12:31:08.643Z,3.70
2019-02-19T12:32:08.619Z,3.50
2019-02-19T12:33:08.613Z,3.70
2019-02-19T12:34:08.605Z,4.10
2019-02-19T12:35:08.625Z,3.90
2019-02-19T12:36:08.576Z,3.70
2019-02-19T12:37:09.334Z,3.70
2019-02-19T12:38:08.554Z,3.20
2019-02-19T12:39:08.544Z,3.80
2019-02-19T12:40:08.558Z,3.70
2019-02-19T12:41:08.519Z,3.60
2019-02-19T12:42:08.522Z,3.90
2019-02-19T12:43:08.499Z,3.80
2019-02-19T12:44:08.488Z,3.80
2019-02-19T12:45:08.506Z,4.10
2019-02-19T12:46:08.462Z,4.10
2019-02-19T12:47:08.454Z,3.70
2019-02-19T12:48:08.448Z,4.00
2019-02-19T12:49:08.433Z,3.20
2019-02-19T12:50:08.442Z,3.00
2019-02-19T12:51:08.409Z,2.60
2019-02-19T12:52:08.397Z,3.10
2019-02-19T12:53:08.385Z,2.60
2019-02-19T12:54:08.375Z,2.60
2019-02-19T12:55:08.386Z,3.10
2019-02-19T12:56:08.352Z,2.80
2019-02-19T12:57:08.340Z,2.90
2019-02-19T12:58:08.331Z,2.70
2019-02-19T12:59:08.320Z,3.20
2019-02-19T13:00:08.333Z,2.80
2019-02-19T13:01:08.313Z,2.70
2019-02-19T13:02:08.286Z,3.30
2019-02-19T13:03:08.275Z,2.90
2019-02-19T13:04:08.266Z,3.10